sensor_id;sensor_type;location;lat;lon;timestamp;P1;durP1;ratioP1;P2;durP2;ratioP2
45684;SDS011;46836;48.388;16.210;2022-09-27T00:01:02;8.25;;;6.90;;
45684;SDS011;46836;48.388;16.210;2022-09-27T00:03:34;8.65;;;7.80;;
45684;SDS011;46836;48.388;16.210;2022-09-27T00:06:10;8.50;;;6.72;;
45684;SDS011;46836;48.388;16.210;2022-09-27T00:08:38;6.80;;;5.50;;
45684;SDS011;46836;48.388;16.210;2022-09-27T00:11:09;6.55;;;5.78;;
45684;SDS011;46836;48.388;16.210;2022-09-27T00:13:41;6.05;;;5.45;;
45684;SDS011;46836;48.388;16.210;2022-09-27T00:16:09;6.75;;;5.88;;
45684;SDS011;46836;48.388;16.210;2022-09-27T00:18:36;7.18;;;5.10;;
45684;SDS011;46836;48.388;16.210;2022-09-27T00:21:07;6.20;;;5.00;;
45684;SDS011;46836;48.388;16.210;2022-09-27T00:23:36;6.15;;;5.13;;
45684;SDS011;46836;48.388;16.210;2022-09-27T00:26:05;6.25;;;5.65;;
45684;SDS011;46836;48.388;16.210;2022-09-27T00:28:34;6.57;;;5.15;;
45684;SDS011;46836;48.388;16.210;2022-09-27T00:31:01;6.53;;;5.65;;
45684;SDS011;46836;48.388;16.210;2022-09-27T00:33:29;6.70;;;5.65;;
45684;SDS011;46836;48.388;16.210;2022-09-27T00:36:02;7.45;;;4.88;;
45684;SDS011;46836;48.388;16.210;2022-09-27T00:38:30;6.05;;;5.40;;
45684;SDS011;46836;48.388;16.210;2022-09-27T00:40:58;9.90;;;5.60;;
45684;SDS011;46836;48.388;16.210;2022-09-27T00:43:25;7.82;;;5.05;;
45684;SDS011;46836;48.388;16.210;2022-09-27T00:46:07;8.57;;;5.30;;
45684;SDS011;46836;48.388;16.210;2022-09-27T00:48:35;5.82;;;5.22;;
45684;SDS011;46836;48.388;16.210;2022-09-27T00:51:03;6.47;;;5.65;;
45684;SDS011;46836;48.388;16.210;2022-09-27T00:53:40;6.18;;;5.35;;
45684;SDS011;46836;48.388;16.210;2022-09-27T00:56:13;5.50;;;5.00;;
45684;SDS011;46836;48.388;16.210;2022-09-27T00:58:47;7.20;;;6.40;;
45684;SDS011;46836;48.388;16.210;2022-09-27T01:01:21;8.45;;;5.90;;
45684;SDS011;46836;48.388;16.210;2022-09-27T01:03:56;6.65;;;5.00;;
45684;SDS011;46836;48.388;16.210;2022-09-27T01:06:25;6.32;;;5.72;;
45684;SDS011;46836;48.388;16.210;2022-09-27T01:08:52;8.75;;;5.93;;
45684;SDS011;46836;48.388;16.210;2022-09-27T01:17:34;7.80;;;5.65;;
45684;SDS011;46836;48.388;16.210;2022-09-27T01:42:20;8.20;;;6.55;;
45684;SDS011;46836;48.388;16.210;2022-09-27T01:45:15;8.50;;;5.80;;
45684;SDS011;46836;48.388;16.210;2022-09-27T01:48:00;6.60;;;5.82;;
45684;SDS011;46836;48.388;16.210;2022-09-27T01:55:31;5.93;;;5.00;;
45684;SDS011;46836;48.388;16.210;2022-09-27T01:58:10;6.88;;;6.05;;
45684;SDS011;46836;48.388;16.210;2022-09-27T02:00:48;7.35;;;5.65;;
45684;SDS011;46836;48.388;16.210;2022-09-27T02:06:23;6.55;;;5.70;;
45684;SDS011;46836;48.388;16.210;2022-09-27T02:09:03;7.22;;;6.35;;
45684;SDS011;46836;48.388;16.210;2022-09-27T02:11:37;5.93;;;5.25;;
45684;SDS011;46836;48.388;16.210;2022-09-27T02:14:18;8.55;;;5.72;;
45684;SDS011;46836;48.388;16.210;2022-09-27T02:22:38;6.90;;;6.20;;
45684;SDS011;46836;48.388;16.210;2022-09-27T02:27:49;9.75;;;7.25;;
45684;SDS011;46836;48.388;16.210;2022-09-27T02:30:35;9.65;;;8.05;;
45684;SDS011;46836;48.388;16.210;2022-09-27T02:33:03;8.82;;;6.97;;
45684;SDS011;46836;48.388;16.210;2022-09-27T02:35:33;12.48;;;8.32;;
45684;SDS011;46836;48.388;16.210;2022-09-27T02:38:02;9.10;;;7.40;;
45684;SDS011;46836;48.388;16.210;2022-09-27T02:40:32;7.70;;;6.63;;
45684;SDS011;46836;48.388;16.210;2022-09-27T02:43:02;7.53;;;6.13;;
45684;SDS011;46836;48.388;16.210;2022-09-27T02:56:36;8.07;;;7.22;;
45684;SDS011;46836;48.388;16.210;2022-09-27T02:59:19;10.60;;;6.43;;
45684;SDS011;46836;48.388;16.210;2022-09-27T03:02:05;7.05;;;6.35;;
45684;SDS011;46836;48.388;16.210;2022-09-27T03:07:25;7.93;;;6.03;;
45684;SDS011;46836;48.388;16.210;2022-09-27T03:09:52;6.85;;;6.15;;
45684;SDS011;46836;48.388;16.210;2022-09-27T03:12:20;8.18;;;6.65;;
45684;SDS011;46836;48.388;16.210;2022-09-27T03:14:52;7.00;;;6.30;;
45684;SDS011;46836;48.388;16.210;2022-09-27T03:17:22;9.15;;;6.75;;
45684;SDS011;46836;48.388;16.210;2022-09-27T03:19:49;6.57;;;5.70;;
45684;SDS011;46836;48.388;16.210;2022-09-27T03:22:16;8.10;;;6.45;;
45684;SDS011;46836;48.388;16.210;2022-09-27T03:24:43;9.57;;;6.70;;
45684;SDS011;46836;48.388;16.210;2022-09-27T03:27:11;8.32;;;6.30;;
45684;SDS011;46836;48.388;16.210;2022-09-27T03:29:38;8.95;;;6.57;;
45684;SDS011;46836;48.388;16.210;2022-09-27T03:32:05;8.50;;;6.38;;
45684;SDS011;46836;48.388;16.210;2022-09-27T03:34:32;7.30;;;6.10;;
45684;SDS011;46836;48.388;16.210;2022-09-27T03:36:59;7.63;;;6.60;;
45684;SDS011;46836;48.388;16.210;2022-09-27T03:39:27;7.07;;;6.38;;
45684;SDS011;46836;48.388;16.210;2022-09-27T03:41:54;9.20;;;6.95;;
45684;SDS011;46836;48.388;16.210;2022-09-27T03:44:22;6.80;;;6.10;;
45684;SDS011;46836;48.388;16.210;2022-09-27T03:46:49;7.30;;;6.53;;
45684;SDS011;46836;48.388;16.210;2022-09-27T03:49:16;7.60;;;6.45;;
45684;SDS011;46836;48.388;16.210;2022-09-27T03:51:44;10.23;;;6.57;;
45684;SDS011;46836;48.388;16.210;2022-09-27T03:54:11;8.85;;;7.43;;
45684;SDS011;46836;48.388;16.210;2022-09-27T03:56:38;7.45;;;6.68;;
45684;SDS011;46836;48.388;16.210;2022-09-27T03:59:05;8.80;;;7.88;;
45684;SDS011;46836;48.388;16.210;2022-09-27T04:01:32;8.90;;;7.07;;
45684;SDS011;46836;48.388;16.210;2022-09-27T04:04:02;9.18;;;7.75;;
45684;SDS011;46836;48.388;16.210;2022-09-27T04:06:35;9.27;;;6.88;;
45684;SDS011;46836;48.388;16.210;2022-09-27T04:09:02;8.77;;;7.05;;
45684;SDS011;46836;48.388;16.210;2022-09-27T04:11:29;8.55;;;6.50;;
45684;SDS011;46836;48.388;16.210;2022-09-27T04:13:57;8.95;;;7.45;;
45684;SDS011;46836;48.388;16.210;2022-09-27T04:16:24;7.93;;;6.60;;
45684;SDS011;46836;48.388;16.210;2022-09-27T04:18:51;8.95;;;6.82;;
45684;SDS011;46836;48.388;16.210;2022-09-27T04:21:19;9.57;;;7.65;;
45684;SDS011;46836;48.388;16.210;2022-09-27T04:23:45;9.25;;;6.63;;
45684;SDS011;46836;48.388;16.210;2022-09-27T04:26:13;9.38;;;6.10;;
45684;SDS011;46836;48.388;16.210;2022-09-27T04:28:40;7.55;;;6.75;;
45684;SDS011;46836;48.388;16.210;2022-09-27T04:31:07;5.90;;;5.13;;
45684;SDS011;46836;48.388;16.210;2022-09-27T04:33:34;11.25;;;7.00;;
45684;SDS011;46836;48.388;16.210;2022-09-27T04:36:01;8.90;;;7.22;;
45684;SDS011;46836;48.388;16.210;2022-09-27T04:38:46;7.68;;;6.32;;
45684;SDS011;46836;48.388;16.210;2022-09-27T04:41:13;7.38;;;6.68;;
45684;SDS011;46836;48.388;16.210;2022-09-27T04:43:40;8.15;;;6.40;;
45684;SDS011;46836;48.388;16.210;2022-09-27T04:46:07;8.73;;;7.07;;
45684;SDS011;46836;48.388;16.210;2022-09-27T04:48:35;7.22;;;6.53;;
45684;SDS011;46836;48.388;16.210;2022-09-27T04:51:03;8.52;;;6.78;;
45684;SDS011;46836;48.388;16.210;2022-09-27T04:53:30;9.88;;;7.50;;
45684;SDS011;46836;48.388;16.210;2022-09-27T04:55:57;8.95;;;7.45;;
45684;SDS011;46836;48.388;16.210;2022-09-27T04:58:28;13.43;;;9.32;;
45684;SDS011;46836;48.388;16.210;2022-09-27T05:00:55;8.35;;;7.45;;
45684;SDS011;46836;48.388;16.210;2022-09-27T05:03:22;8.93;;;7.22;;
45684;SDS011;46836;48.388;16.210;2022-09-27T05:05:49;8.05;;;7.25;;
45684;SDS011;46836;48.388;16.210;2022-09-27T05:08:17;9.30;;;7.65;;
45684;SDS011;46836;48.388;16.210;2022-09-27T05:10:43;9.90;;;7.50;;
45684;SDS011;46836;48.388;16.210;2022-09-27T05:13:11;9.65;;;7.80;;
45684;SDS011;46836;48.388;16.210;2022-09-27T05:15:40;9.65;;;8.55;;
45684;SDS011;46836;48.388;16.210;2022-09-27T05:18:07;10.35;;;7.53;;
45684;SDS011;46836;48.388;16.210;2022-09-27T05:20:35;8.63;;;7.43;;
45684;SDS011;46836;48.388;16.210;2022-09-27T05:23:03;8.90;;;7.20;;
45684;SDS011;46836;48.388;16.210;2022-09-27T05:25:31;8.85;;;7.32;;
45684;SDS011;46836;48.388;16.210;2022-09-27T05:27:59;11.57;;;8.20;;
45684;SDS011;46836;48.388;16.210;2022-09-27T05:30:26;8.90;;;7.00;;
45684;SDS011;46836;48.388;16.210;2022-09-27T05:32:53;8.27;;;7.45;;
45684;SDS011;46836;48.388;16.210;2022-09-27T05:35:20;8.75;;;6.68;;
45684;SDS011;46836;48.388;16.210;2022-09-27T05:37:54;8.15;;;7.05;;
45684;SDS011;46836;48.388;16.210;2022-09-27T05:40:23;7.93;;;6.75;;
45684;SDS011;46836;48.388;16.210;2022-09-27T05:43:07;10.80;;;7.60;;
45684;SDS011;46836;48.388;16.210;2022-09-27T05:45:34;10.63;;;7.32;;
45684;SDS011;46836;48.388;16.210;2022-09-27T05:48:02;7.60;;;6.68;;
45684;SDS011;46836;48.388;16.210;2022-09-27T05:50:30;9.23;;;8.02;;
45684;SDS011;46836;48.388;16.210;2022-09-27T05:52:58;11.52;;;7.07;;
45684;SDS011;46836;48.388;16.210;2022-09-27T05:55:25;9.32;;;7.88;;
45684;SDS011;46836;48.388;16.210;2022-09-27T06:00:27;9.35;;;7.72;;
45684;SDS011;46836;48.388;16.210;2022-09-27T06:02:55;11.75;;;8.00;;
45684;SDS011;46836;48.388;16.210;2022-09-27T06:05:25;12.13;;;10.30;;
45684;SDS011;46836;48.388;16.210;2022-09-27T06:07:59;12.60;;;9.50;;
45684;SDS011;46836;48.388;16.210;2022-09-27T06:10:29;11.85;;;9.77;;
45684;SDS011;46836;48.388;16.210;2022-09-27T06:13:02;13.02;;;10.60;;
45684;SDS011;46836;48.388;16.210;2022-09-27T06:15:34;12.60;;;10.45;;
45684;SDS011;46836;48.388;16.210;2022-09-27T06:18:06;16.60;;;12.07;;
45684;SDS011;46836;48.388;16.210;2022-09-27T06:20:36;12.90;;;10.10;;
45684;SDS011;46836;48.388;16.210;2022-09-27T06:23:17;25.05;;;15.52;;
45684;SDS011;46836;48.388;16.210;2022-09-27T06:25:46;15.48;;;13.75;;
45684;SDS011;46836;48.388;16.210;2022-09-27T06:28:15;11.52;;;9.80;;
45684;SDS011;46836;48.388;16.210;2022-09-27T06:30:45;101.43;;;26.50;;
45684;SDS011;46836;48.388;16.210;2022-09-27T06:33:15;54.72;;;17.05;;
45684;SDS011;46836;48.388;16.210;2022-09-27T06:35:45;13.40;;;10.23;;
45684;SDS011;46836;48.388;16.210;2022-09-27T06:38:15;17.70;;;9.88;;
45684;SDS011;46836;48.388;16.210;2022-09-27T06:40:43;15.93;;;11.27;;
45684;SDS011;46836;48.388;16.210;2022-09-27T06:43:13;10.82;;;8.73;;
45684;SDS011;46836;48.388;16.210;2022-09-27T06:45:47;34.97;;;14.25;;
45684;SDS011;46836;48.388;16.210;2022-09-27T06:48:16;22.25;;;11.82;;
45684;SDS011;46836;48.388;16.210;2022-09-27T06:50:43;59.03;;;19.83;;
45684;SDS011;46836;48.388;16.210;2022-09-27T06:53:13;10.80;;;9.68;;
45684;SDS011;46836;48.388;16.210;2022-09-27T06:55:41;44.33;;;14.80;;
45684;SDS011;46836;48.388;16.210;2022-09-27T06:58:09;20.02;;;11.32;;
45684;SDS011;46836;48.388;16.210;2022-09-27T07:00:55;44.80;;;18.33;;
45684;SDS011;46836;48.388;16.210;2022-09-27T07:03:24;17.75;;;10.32;;
45684;SDS011;46836;48.388;16.210;2022-09-27T07:06:05;30.48;;;14.00;;
45684;SDS011;46836;48.388;16.210;2022-09-27T07:08:37;16.55;;;11.90;;
45684;SDS011;46836;48.388;16.210;2022-09-27T07:11:05;18.70;;;11.90;;
45684;SDS011;46836;48.388;16.210;2022-09-27T07:13:33;22.85;;;13.35;;
45684;SDS011;46836;48.388;16.210;2022-09-27T07:16:05;13.32;;;10.82;;
45684;SDS011;46836;48.388;16.210;2022-09-27T07:18:33;10.00;;;8.75;;
45684;SDS011;46836;48.388;16.210;2022-09-27T07:21:00;26.65;;;12.55;;
45684;SDS011;46836;48.388;16.210;2022-09-27T07:23:27;13.75;;;9.90;;
45684;SDS011;46836;48.388;16.210;2022-09-27T07:25:55;11.35;;;8.65;;
45684;SDS011;46836;48.388;16.210;2022-09-27T07:28:22;11.05;;;8.90;;
45684;SDS011;46836;48.388;16.210;2022-09-27T07:30:53;10.65;;;8.32;;
45684;SDS011;46836;48.388;16.210;2022-09-27T07:33:21;12.30;;;7.72;;
45684;SDS011;46836;48.388;16.210;2022-09-27T07:35:48;13.70;;;8.45;;
45684;SDS011;46836;48.388;16.210;2022-09-27T07:38:15;21.60;;;8.80;;
45684;SDS011;46836;48.388;16.210;2022-09-27T07:40:42;21.27;;;10.70;;
45684;SDS011;46836;48.388;16.210;2022-09-27T07:43:10;17.67;;;9.75;;
45684;SDS011;46836;48.388;16.210;2022-09-27T07:45:37;11.25;;;8.20;;
45684;SDS011;46836;48.388;16.210;2022-09-27T07:48:05;10.70;;;9.20;;
45684;SDS011;46836;48.388;16.210;2022-09-27T07:50:34;9.40;;;7.90;;
45684;SDS011;46836;48.388;16.210;2022-09-27T07:53:01;14.32;;;9.05;;
45684;SDS011;46836;48.388;16.210;2022-09-27T07:55:30;12.02;;;9.00;;
45684;SDS011;46836;48.388;16.210;2022-09-27T07:58:04;14.10;;;9.50;;
45684;SDS011;46836;48.388;16.210;2022-09-27T08:00:34;12.75;;;10.43;;
45684;SDS011;46836;48.388;16.210;2022-09-27T08:03:06;19.38;;;10.63;;
45684;SDS011;46836;48.388;16.210;2022-09-27T08:05:36;13.98;;;10.95;;
45684;SDS011;46836;48.388;16.210;2022-09-27T08:08:03;17.15;;;11.98;;
45684;SDS011;46836;48.388;16.210;2022-09-27T08:10:31;16.33;;;11.80;;
45684;SDS011;46836;48.388;16.210;2022-09-27T08:13:02;17.02;;;12.18;;
45684;SDS011;46836;48.388;16.210;2022-09-27T08:15:30;20.20;;;11.80;;
45684;SDS011;46836;48.388;16.210;2022-09-27T08:17:58;14.55;;;11.38;;
45684;SDS011;46836;48.388;16.210;2022-09-27T08:20:26;14.85;;;11.88;;
45684;SDS011;46836;48.388;16.210;2022-09-27T08:22:53;13.40;;;10.88;;
45684;SDS011;46836;48.388;16.210;2022-09-27T08:25:20;14.57;;;11.90;;
45684;SDS011;46836;48.388;16.210;2022-09-27T08:30:48;14.35;;;12.27;;
45684;SDS011;46836;48.388;16.210;2022-09-27T08:33:16;18.05;;;12.45;;
45684;SDS011;46836;48.388;16.210;2022-09-27T08:35:43;16.45;;;12.30;;
45684;SDS011;46836;48.388;16.210;2022-09-27T08:38:10;13.32;;;10.98;;
45684;SDS011;46836;48.388;16.210;2022-09-27T08:40:56;16.75;;;11.25;;
45684;SDS011;46836;48.388;16.210;2022-09-27T08:46:14;16.90;;;11.30;;
45684;SDS011;46836;48.388;16.210;2022-09-27T08:49:04;28.92;;;14.00;;
45684;SDS011;46836;48.388;16.210;2022-09-27T08:51:37;118.47;;;27.83;;
45684;SDS011;46836;48.388;16.210;2022-09-27T08:54:24;34.15;;;14.07;;
45684;SDS011;46836;48.388;16.210;2022-09-27T08:56:57;16.95;;;10.07;;
45684;SDS011;46836;48.388;16.210;2022-09-27T08:59:30;24.20;;;11.18;;
45684;SDS011;46836;48.388;16.210;2022-09-27T09:02:03;11.52;;;9.30;;
45684;SDS011;46836;48.388;16.210;2022-09-27T09:04:38;10.23;;;8.88;;
45684;SDS011;46836;48.388;16.210;2022-09-27T09:07:11;10.32;;;8.77;;
45684;SDS011;46836;48.388;16.210;2022-09-27T09:27:38;6.50;;;5.80;;
45684;SDS011;46836;48.388;16.210;2022-09-27T09:30:50;5.35;;;4.85;;
45684;SDS011;46836;48.388;16.210;2022-09-27T09:35:58;6.28;;;4.32;;
45684;SDS011;46836;48.388;16.210;2022-09-27T09:38:50;11.15;;;6.00;;
45684;SDS011;46836;48.388;16.210;2022-09-27T09:41:23;5.85;;;4.80;;
45684;SDS011;46836;48.388;16.210;2022-09-27T09:44:15;5.38;;;4.88;;
45684;SDS011;46836;48.388;16.210;2022-09-27T09:46:44;7.22;;;5.07;;
45684;SDS011;46836;48.388;16.210;2022-09-27T09:49:26;6.53;;;4.75;;
45684;SDS011;46836;48.388;16.210;2022-09-27T09:51:55;5.53;;;4.97;;
45684;SDS011;46836;48.388;16.210;2022-09-27T09:54:48;4.88;;;4.38;;
45684;SDS011;46836;48.388;16.210;2022-09-27T09:57:22;7.35;;;5.05;;
45684;SDS011;46836;48.388;16.210;2022-09-27T09:59:55;6.65;;;4.60;;
45684;SDS011;46836;48.388;16.210;2022-09-27T10:02:40;5.65;;;4.50;;
45684;SDS011;46836;48.388;16.210;2022-09-27T10:05:13;6.18;;;5.18;;
45684;SDS011;46836;48.388;16.210;2022-09-27T10:07:46;7.75;;;5.40;;
45684;SDS011;46836;48.388;16.210;2022-09-27T10:10:19;6.20;;;4.97;;
45684;SDS011;46836;48.388;16.210;2022-09-27T10:12:47;6.40;;;5.37;;
45684;SDS011;46836;48.388;16.210;2022-09-27T10:15:16;7.20;;;5.15;;
45684;SDS011;46836;48.388;16.210;2022-09-27T10:17:50;4.67;;;4.17;;
45684;SDS011;46836;48.388;16.210;2022-09-27T10:23:18;4.70;;;4.20;;
45684;SDS011;46836;48.388;16.210;2022-09-27T10:25:49;4.00;;;3.00;;
45684;SDS011;46836;48.388;16.210;2022-09-27T10:28:42;4.83;;;3.10;;
45684;SDS011;46836;48.388;16.210;2022-09-27T10:31:12;4.07;;;3.33;;
45684;SDS011;46836;48.388;16.210;2022-09-27T10:33:51;4.67;;;3.47;;
45684;SDS011;46836;48.388;16.210;2022-09-27T10:36:26;3.43;;;3.07;;
45684;SDS011;46836;48.388;16.210;2022-09-27T10:38:57;3.73;;;3.13;;
45684;SDS011;46836;48.388;16.210;2022-09-27T10:41:44;36.20;;;10.00;;
45684;SDS011;46836;48.388;16.210;2022-09-27T10:46:43;7.33;;;3.77;;
45684;SDS011;46836;48.388;16.210;2022-09-27T10:49:24;12.97;;;4.87;;
45684;SDS011;46836;48.388;16.210;2022-09-27T10:51:58;53.63;;;13.03;;
45684;SDS011;46836;48.388;16.210;2022-09-27T10:54:34;7.07;;;4.00;;
45684;SDS011;46836;48.388;16.210;2022-09-27T10:57:04;15.43;;;6.40;;
45684;SDS011;46836;48.388;16.210;2022-09-27T10:59:54;5.37;;;3.80;;
45684;SDS011;46836;48.388;16.210;2022-09-27T11:02:28;14.97;;;4.73;;
45684;SDS011;46836;48.388;16.210;2022-09-27T11:05:11;23.20;;;7.80;;
45684;SDS011;46836;48.388;16.210;2022-09-27T11:08:21;15.30;;;6.17;;
45684;SDS011;46836;48.388;16.210;2022-09-27T11:11:15;4.60;;;3.20;;
45684;SDS011;46836;48.388;16.210;2022-09-27T11:14:02;7.00;;;3.50;;
45684;SDS011;46836;48.388;16.210;2022-09-27T11:21:51;9.23;;;4.50;;
45684;SDS011;46836;48.388;16.210;2022-09-27T11:37:57;2.47;;;2.00;;
45684;SDS011;46836;48.388;16.210;2022-09-27T11:46:29;2.60;;;1.80;;
45684;SDS011;46836;48.388;16.210;2022-09-27T11:57:25;1.87;;;1.77;;
45684;SDS011;46836;48.388;16.210;2022-09-27T12:00:06;3.40;;;1.57;;
45684;SDS011;46836;48.388;16.210;2022-09-27T12:14:18;1.57;;;1.33;;
45684;SDS011;46836;48.388;16.210;2022-09-27T12:17:06;1.70;;;1.40;;
45684;SDS011;46836;48.388;16.210;2022-09-27T12:19:42;1.63;;;1.53;;
45684;SDS011;46836;48.388;16.210;2022-09-27T12:22:21;1.73;;;1.60;;
45684;SDS011;46836;48.388;16.210;2022-09-27T12:25:13;2.13;;;1.30;;
45684;SDS011;46836;48.388;16.210;2022-09-27T12:27:50;5.67;;;2.93;;
45684;SDS011;46836;48.388;16.210;2022-09-27T12:30:25;1.83;;;1.50;;
45684;SDS011;46836;48.388;16.210;2022-09-27T12:35:49;1.60;;;1.50;;
45684;SDS011;46836;48.388;16.210;2022-09-27T12:38:26;1.93;;;1.53;;
45684;SDS011;46836;48.388;16.210;2022-09-27T12:41:13;1.97;;;1.50;;
45684;SDS011;46836;48.388;16.210;2022-09-27T12:43:46;2.17;;;1.47;;
45684;SDS011;46836;48.388;16.210;2022-09-27T12:49:01;2.50;;;1.50;;
45684;SDS011;46836;48.388;16.210;2022-09-27T12:51:38;2.90;;;1.50;;
45684;SDS011;46836;48.388;16.210;2022-09-27T12:54:23;1.67;;;1.57;;
45684;SDS011;46836;48.388;16.210;2022-09-27T12:57:02;2.87;;;1.60;;
45684;SDS011;46836;48.388;16.210;2022-09-27T13:07:36;2.80;;;1.70;;
45684;SDS011;46836;48.388;16.210;2022-09-27T13:10:18;2.13;;;1.50;;
45684;SDS011;46836;48.388;16.210;2022-09-27T13:13:00;2.70;;;1.43;;
45684;SDS011;46836;48.388;16.210;2022-09-27T13:15:32;2.30;;;1.70;;
45684;SDS011;46836;48.388;16.210;2022-09-27T13:18:01;1.40;;;1.30;;
45684;SDS011;46836;48.388;16.210;2022-09-27T13:23:03;2.50;;;2.00;;
45684;SDS011;46836;48.388;16.210;2022-09-27T13:28:31;2.20;;;1.50;;
45684;SDS011;46836;48.388;16.210;2022-09-27T13:39:36;1.27;;;1.17;;
45684;SDS011;46836;48.388;16.210;2022-09-27T13:49:54;2.30;;;1.27;;
45684;SDS011;46836;48.388;16.210;2022-09-27T13:52:30;3.90;;;1.90;;
45684;SDS011;46836;48.388;16.210;2022-09-27T13:55:03;2.50;;;1.80;;
45684;SDS011;46836;48.388;16.210;2022-09-27T13:57:59;2.03;;;1.67;;
45684;SDS011;46836;48.388;16.210;2022-09-27T14:00:39;4.03;;;3.30;;
45684;SDS011;46836;48.388;16.210;2022-09-27T14:08:47;5.33;;;1.60;;
45684;SDS011;46836;48.388;16.210;2022-09-27T14:11:18;1.60;;;1.50;;
45684;SDS011;46836;48.388;16.210;2022-09-27T14:13:52;1.20;;;1.10;;
45684;SDS011;46836;48.388;16.210;2022-09-27T14:16:20;2.07;;;1.33;;
45684;SDS011;46836;48.388;16.210;2022-09-27T14:18:49;0.90;;;0.90;;
45684;SDS011;46836;48.388;16.210;2022-09-27T14:24:16;2.20;;;1.43;;
45684;SDS011;46836;48.388;16.210;2022-09-27T14:27:01;2.00;;;1.50;;
45684;SDS011;46836;48.388;16.210;2022-09-27T14:32:23;3.70;;;1.80;;
45684;SDS011;46836;48.388;16.210;2022-09-27T14:35:01;1.60;;;1.40;;
45684;SDS011;46836;48.388;16.210;2022-09-27T14:38:05;4.23;;;1.40;;
45684;SDS011;46836;48.388;16.210;2022-09-27T14:40:58;3.40;;;1.70;;
45684;SDS011;46836;48.388;16.210;2022-09-27T14:43:28;1.83;;;1.30;;
45684;SDS011;46836;48.388;16.210;2022-09-27T14:46:04;3.53;;;1.00;;
45684;SDS011;46836;48.388;16.210;2022-09-27T14:53:41;1.77;;;0.60;;
45684;SDS011;46836;48.388;16.210;2022-09-27T14:56:16;0.60;;;0.57;;
45684;SDS011;46836;48.388;16.210;2022-09-27T14:58:50;0.65;;;0.60;;
45684;SDS011;46836;48.388;16.210;2022-09-27T15:01:22;1.50;;;1.00;;
45684;SDS011;46836;48.388;16.210;2022-09-27T15:03:49;0.85;;;0.75;;
45684;SDS011;46836;48.388;16.210;2022-09-27T15:06:19;1.40;;;1.05;;
45684;SDS011;46836;48.388;16.210;2022-09-27T15:08:46;1.30;;;0.82;;
45684;SDS011;46836;48.388;16.210;2022-09-27T15:11:17;0.70;;;0.70;;
45684;SDS011;46836;48.388;16.210;2022-09-27T15:13:46;1.40;;;1.00;;
45684;SDS011;46836;48.388;16.210;2022-09-27T15:16:19;1.40;;;1.08;;
45684;SDS011;46836;48.388;16.210;2022-09-27T15:19:32;0.75;;;0.70;;
45684;SDS011;46836;48.388;16.210;2022-09-27T15:21:43;0.95;;;0.82;;
45684;SDS011;46836;48.388;16.210;2022-09-27T15:27:11;2.28;;;0.70;;
45684;SDS011;46836;48.388;16.210;2022-09-27T15:29:40;0.73;;;0.70;;
45684;SDS011;46836;48.388;16.210;2022-09-27T15:32:10;0.65;;;0.50;;
45684;SDS011;46836;48.388;16.210;2022-09-27T15:34:43;4.00;;;0.90;;
45684;SDS011;46836;48.388;16.210;2022-09-27T15:37:24;1.65;;;0.57;;
45684;SDS011;46836;48.388;16.210;2022-09-27T15:42:55;1.73;;;0.70;;
45684;SDS011;46836;48.388;16.210;2022-09-27T15:45:34;4.88;;;0.90;;
45684;SDS011;46836;48.388;16.210;2022-09-27T15:48:05;1.00;;;0.90;;
45684;SDS011;46836;48.388;16.210;2022-09-27T15:50:40;1.20;;;1.10;;
45684;SDS011;46836;48.388;16.210;2022-09-27T15:53:08;0.90;;;0.80;;
45684;SDS011;46836;48.388;16.210;2022-09-27T15:55:40;1.40;;;1.13;;
45684;SDS011;46836;48.388;16.210;2022-09-27T15:58:17;1.05;;;0.80;;
45684;SDS011;46836;48.388;16.210;2022-09-27T16:01:04;1.38;;;0.90;;
45684;SDS011;46836;48.388;16.210;2022-09-27T16:03:32;1.67;;;0.93;;
45684;SDS011;46836;48.388;16.210;2022-09-27T16:06:00;1.25;;;0.73;;
45684;SDS011;46836;48.388;16.210;2022-09-27T16:08:28;1.00;;;0.75;;
45684;SDS011;46836;48.388;16.210;2022-09-27T16:10:56;1.00;;;0.88;;
45684;SDS011;46836;48.388;16.210;2022-09-27T16:13:25;0.93;;;0.85;;
45684;SDS011;46836;48.388;16.210;2022-09-27T16:15:58;1.80;;;1.02;;
45684;SDS011;46836;48.388;16.210;2022-09-27T16:18:27;0.90;;;0.70;;
45684;SDS011;46836;48.388;16.210;2022-09-27T16:20:56;0.85;;;0.73;;
45684;SDS011;46836;48.388;16.210;2022-09-27T16:23:24;2.08;;;1.10;;
45684;SDS011;46836;48.388;16.210;2022-09-27T16:25:52;1.33;;;0.70;;
45684;SDS011;46836;48.388;16.210;2022-09-27T16:28:19;1.55;;;0.90;;
45684;SDS011;46836;48.388;16.210;2022-09-27T16:30:46;2.25;;;0.90;;
45684;SDS011;46836;48.388;16.210;2022-09-27T16:33:13;2.28;;;0.88;;
45684;SDS011;46836;48.388;16.210;2022-09-27T16:35:40;1.80;;;1.10;;
45684;SDS011;46836;48.388;16.210;2022-09-27T16:38:07;0.95;;;0.85;;
45684;SDS011;46836;48.388;16.210;2022-09-27T16:40:35;1.33;;;0.70;;
45684;SDS011;46836;48.388;16.210;2022-09-27T16:43:03;1.15;;;0.80;;
45684;SDS011;46836;48.388;16.210;2022-09-27T16:45:33;1.35;;;0.82;;
45684;SDS011;46836;48.388;16.210;2022-09-27T16:48:02;13.68;;;7.50;;
45684;SDS011;46836;48.388;16.210;2022-09-27T16:50:29;2.90;;;1.95;;
45684;SDS011;46836;48.388;16.210;2022-09-27T16:53:15;0.73;;;0.68;;
45684;SDS011;46836;48.388;16.210;2022-09-27T16:55:42;0.73;;;0.70;;
45684;SDS011;46836;48.388;16.210;2022-09-27T16:58:09;1.30;;;0.63;;
45684;SDS011;46836;48.388;16.210;2022-09-27T17:00:36;1.00;;;0.90;;
45684;SDS011;46836;48.388;16.210;2022-09-27T17:03:06;0.73;;;0.60;;
45684;SDS011;46836;48.388;16.210;2022-09-27T17:05:34;1.23;;;0.55;;
45684;SDS011;46836;48.388;16.210;2022-09-27T17:08:01;1.40;;;0.75;;
45684;SDS011;46836;48.388;16.210;2022-09-27T17:10:30;0.85;;;0.70;;
45684;SDS011;46836;48.388;16.210;2022-09-27T17:12:57;1.10;;;0.90;;
45684;SDS011;46836;48.388;16.210;2022-09-27T17:15:26;0.60;;;0.50;;
45684;SDS011;46836;48.388;16.210;2022-09-27T17:17:54;1.33;;;0.73;;
45684;SDS011;46836;48.388;16.210;2022-09-27T17:20:22;0.95;;;0.70;;
45684;SDS011;46836;48.388;16.210;2022-09-27T17:22:49;1.30;;;0.70;;
45684;SDS011;46836;48.388;16.210;2022-09-27T17:25:16;0.70;;;0.50;;
45684;SDS011;46836;48.388;16.210;2022-09-27T17:27:43;1.00;;;0.90;;
45684;SDS011;46836;48.388;16.210;2022-09-27T17:30:10;0.70;;;0.70;;
45684;SDS011;46836;48.388;16.210;2022-09-27T17:32:38;1.08;;;0.70;;
45684;SDS011;46836;48.388;16.210;2022-09-27T17:35:05;0.93;;;0.80;;
45684;SDS011;46836;48.388;16.210;2022-09-27T17:37:34;1.48;;;0.70;;
45684;SDS011;46836;48.388;16.210;2022-09-27T17:40:02;0.73;;;0.73;;
45684;SDS011;46836;48.388;16.210;2022-09-27T17:42:30;1.13;;;0.90;;
45684;SDS011;46836;48.388;16.210;2022-09-27T17:44:57;1.67;;;0.57;;
45684;SDS011;46836;48.388;16.210;2022-09-27T17:47:24;0.70;;;0.45;;
45684;SDS011;46836;48.388;16.210;2022-09-27T17:50:10;1.05;;;0.70;;
45684;SDS011;46836;48.388;16.210;2022-09-27T17:52:53;1.95;;;0.70;;
45684;SDS011;46836;48.388;16.210;2022-09-27T17:55:22;1.00;;;0.60;;
45684;SDS011;46836;48.388;16.210;2022-09-27T17:57:50;0.77;;;0.70;;
45684;SDS011;46836;48.388;16.210;2022-09-27T18:00:17;1.42;;;1.30;;
45684;SDS011;46836;48.388;16.210;2022-09-27T18:02:46;2.10;;;1.10;;
45684;SDS011;46836;48.388;16.210;2022-09-27T18:05:14;4.03;;;0.90;;
45684;SDS011;46836;48.388;16.210;2022-09-27T18:07:41;1.08;;;1.02;;
45684;SDS011;46836;48.388;16.210;2022-09-27T18:10:08;1.00;;;1.00;;
45684;SDS011;46836;48.388;16.210;2022-09-27T18:12:35;1.50;;;1.15;;